sensor_id;sensor_type;location;lat;lon;timestamp;temperature;humidity
33988;DHT22;37428;53.580;-1.666;2024-01-15T00:00:46;-0.50;79.30
33988;DHT22;37428;53.580;-1.666;2024-01-15T00:03:48;-0.50;79.60
33988;DHT22;37428;53.580;-1.666;2024-01-15T00:06:51;-0.60;80.10
33988;DHT22;37428;53.580;-1.666;2024-01-15T00:09:53;-0.60;79.60
33988;DHT22;37428;53.580;-1.666;2024-01-15T00:12:55;-0.60;79.80
33988;DHT22;37428;53.580;-1.666;2024-01-15T00:15:58;-0.60;79.90
33988;DHT22;37428;53.580;-1.666;2024-01-15T00:19:00;-0.60;79.90
33988;DHT22;37428;53.580;-1.666;2024-01-15T00:22:03;-0.60;80.20
33988;DHT22;37428;53.580;-1.666;2024-01-15T00:25:05;-0.70;79.80
33988;DHT22;37428;53.580;-1.666;2024-01-15T00:28:07;-0.70;80.40
33988;DHT22;37428;53.580;-1.666;2024-01-15T00:31:11;-0.70;81.30
33988;DHT22;37428;53.580;-1.666;2024-01-15T00:34:13;-0.70;81.20
33988;DHT22;37428;53.580;-1.666;2024-01-15T00:37:15;-0.70;81.00
33988;DHT22;37428;53.580;-1.666;2024-01-15T00:40:17;-0.70;81.10
33988;DHT22;37428;53.580;-1.666;2024-01-15T00:43:19;-0.80;80.50
33988;DHT22;37428;53.580;-1.666;2024-01-15T00:46:23;-0.80;80.70
33988;DHT22;37428;53.580;-1.666;2024-01-15T00:49:27;-0.80;80.90
33988;DHT22;37428;53.580;-1.666;2024-01-15T00:52:29;-0.80;80.60
33988;DHT22;37428;53.580;-1.666;2024-01-15T00:55:31;-0.80;80.60
33988;DHT22;37428;53.580;-1.666;2024-01-15T00:58:33;-0.80;80.80
33988;DHT22;37428;53.580;-1.666;2024-01-15T01:01:37;-1.00;80.70
33988;DHT22;37428;53.580;-1.666;2024-01-15T01:04:43;-1.00;81.00
33988;DHT22;37428;53.580;-1.666;2024-01-15T01:07:45;-1.00;80.70
33988;DHT22;37428;53.580;-1.666;2024-01-15T01:10:47;-0.90;80.30
33988;DHT22;37428;53.580;-1.666;2024-01-15T01:13:49;-1.00;80.50
33988;DHT22;37428;53.580;-1.666;2024-01-15T01:16:53;-1.00;80.50
33988;DHT22;37428;53.580;-1.666;2024-01-15T01:19:55;-1.00;80.70
33988;DHT22;37428;53.580;-1.666;2024-01-15T01:22:57;-1.10;80.70
33988;DHT22;37428;53.580;-1.666;2024-01-15T01:26:00;-1.10;80.70
33988;DHT22;37428;53.580;-1.666;2024-01-15T01:29:02;-1.20;80.90
33988;DHT22;37428;53.580;-1.666;2024-01-15T01:32:06;-1.20;81.00
33988;DHT22;37428;53.580;-1.666;2024-01-15T01:35:08;-1.20;80.50
33988;DHT22;37428;53.580;-1.666;2024-01-15T01:38:10;-1.20;80.40
33988;DHT22;37428;53.580;-1.666;2024-01-15T01:41:12;-1.10;80.40
33988;DHT22;37428;53.580;-1.666;2024-01-15T01:44:14;-1.10;79.80
33988;DHT22;37428;53.580;-1.666;2024-01-15T01:47:18;-1.10;79.90
33988;DHT22;37428;53.580;-1.666;2024-01-15T01:50:20;-1.00;80.00
33988;DHT22;37428;53.580;-1.666;2024-01-15T01:53:23;-1.00;80.00
33988;DHT22;37428;53.580;-1.666;2024-01-15T01:56:26;-1.10;79.70
33988;DHT22;37428;53.580;-1.666;2024-01-15T01:59:29;-1.10;80.30
33988;DHT22;37428;53.580;-1.666;2024-01-15T02:02:34;-1.20;79.80
33988;DHT22;37428;53.580;-1.666;2024-01-15T02:05:36;-1.30;79.60
33988;DHT22;37428;53.580;-1.666;2024-01-15T02:08:39;-1.20;80.50
33988;DHT22;37428;53.580;-1.666;2024-01-15T02:11:41;-1.20;79.30
33988;DHT22;37428;53.580;-1.666;2024-01-15T02:14:43;-1.20;78.90
33988;DHT22;37428;53.580;-1.666;2024-01-15T02:18:00;-1.20;78.70
33988;DHT22;37428;53.580;-1.666;2024-01-15T02:21:03;-1.20;78.30
33988;DHT22;37428;53.580;-1.666;2024-01-15T02:24:07;-1.20;78.30
33988;DHT22;37428;53.580;-1.666;2024-01-15T02:27:09;-1.30;77.90
33988;DHT22;37428;53.580;-1.666;2024-01-15T02:30:12;-1.30;77.60
33988;DHT22;37428;53.580;-1.666;2024-01-15T02:33:14;-1.30;77.30
33988;DHT22;37428;53.580;-1.666;2024-01-15T02:36:16;-1.30;77.20
33988;DHT22;37428;53.580;-1.666;2024-01-15T02:39:20;-1.30;76.70
33988;DHT22;37428;53.580;-1.666;2024-01-15T02:42:22;-1.30;76.80
33988;DHT22;37428;53.580;-1.666;2024-01-15T02:45:24;-1.30;76.60
33988;DHT22;37428;53.580;-1.666;2024-01-15T02:48:26;-1.30;77.20
33988;DHT22;37428;53.580;-1.666;2024-01-15T02:51:28;-1.40;76.20
33988;DHT22;37428;53.580;-1.666;2024-01-15T02:54:32;-1.30;76.50
33988;DHT22;37428;53.580;-1.666;2024-01-15T02:57:34;-1.30;76.10
33988;DHT22;37428;53.580;-1.666;2024-01-15T03:00:36;-1.30;75.80
33988;DHT22;37428;53.580;-1.666;2024-01-15T03:03:40;-1.30;76.00
33988;DHT22;37428;53.580;-1.666;2024-01-15T03:06:42;-1.30;75.60
33988;DHT22;37428;53.580;-1.666;2024-01-15T03:09:45;-1.40;75.70
33988;DHT22;37428;53.580;-1.666;2024-01-15T03:12:47;-1.40;75.80
33988;DHT22;37428;53.580;-1.666;2024-01-15T03:15:50;-1.30;75.70
33988;DHT22;37428;53.580;-1.666;2024-01-15T03:18:52;-1.40;75.60
33988;DHT22;37428;53.580;-1.666;2024-01-15T03:21:54;-1.40;75.40
33988;DHT22;37428;53.580;-1.666;2024-01-15T03:24:58;-1.40;75.50
33988;DHT22;37428;53.580;-1.666;2024-01-15T03:28:00;-1.40;75.50
33988;DHT22;37428;53.580;-1.666;2024-01-15T03:31:02;-1.40;75.50
33988;DHT22;37428;53.580;-1.666;2024-01-15T03:34:04;-1.40;75.10
33988;DHT22;37428;53.580;-1.666;2024-01-15T03:37:06;-1.40;75.60
33988;DHT22;37428;53.580;-1.666;2024-01-15T03:40:11;-1.40;75.80
33988;DHT22;37428;53.580;-1.666;2024-01-15T03:43:13;-1.40;75.60
33988;DHT22;37428;53.580;-1.666;2024-01-15T03:46:15;-1.40;75.60
33988;DHT22;37428;53.580;-1.666;2024-01-15T03:49:17;-1.40;75.80
33988;DHT22;37428;53.580;-1.666;2024-01-15T03:52:19;-1.40;75.90
33988;DHT22;37428;53.580;-1.666;2024-01-15T03:55:23;-1.40;76.00
33988;DHT22;37428;53.580;-1.666;2024-01-15T03:58:25;-1.40;76.30
33988;DHT22;37428;53.580;-1.666;2024-01-15T04:01:27;-1.50;75.70
33988;DHT22;37428;53.580;-1.666;2024-01-15T04:04:30;-1.50;76.00
33988;DHT22;37428;53.580;-1.666;2024-01-15T04:07:32;-1.50;76.20
33988;DHT22;37428;53.580;-1.666;2024-01-15T04:10:35;-1.50;76.50
33988;DHT22;37428;53.580;-1.666;2024-01-15T04:13:37;-1.50;76.50
33988;DHT22;37428;53.580;-1.666;2024-01-15T04:16:40;-1.50;76.30
33988;DHT22;37428;53.580;-1.666;2024-01-15T04:19:44;-1.50;76.60
33988;DHT22;37428;53.580;-1.666;2024-01-15T04:22:46;-1.40;77.30
33988;DHT22;37428;53.580;-1.666;2024-01-15T04:25:49;-1.50;76.20
33988;DHT22;37428;53.580;-1.666;2024-01-15T04:28:51;-1.50;76.30
33988;DHT22;37428;53.580;-1.666;2024-01-15T04:31:53;-1.50;76.10
33988;DHT22;37428;53.580;-1.666;2024-01-15T04:34:55;-1.40;76.30
33988;DHT22;37428;53.580;-1.666;2024-01-15T04:37:58;-1.40;76.30
33988;DHT22;37428;53.580;-1.666;2024-01-15T04:41:01;-1.50;75.60
33988;DHT22;37428;53.580;-1.666;2024-01-15T04:44:03;-1.50;75.80
33988;DHT22;37428;53.580;-1.666;2024-01-15T04:47:05;-1.50;75.90
33988;DHT22;37428;53.580;-1.666;2024-01-15T04:50:08;-1.40;75.70
33988;DHT22;37428;53.580;-1.666;2024-01-15T04:53:10;-1.40;75.50
33988;DHT22;37428;53.580;-1.666;2024-01-15T04:56:14;-1.40;75.80
33988;DHT22;37428;53.580;-1.666;2024-01-15T04:59:16;-1.50;76.00
33988;DHT22;37428;53.580;-1.666;2024-01-15T05:02:18;-1.60;76.00
33988;DHT22;37428;53.580;-1.666;2024-01-15T05:05:20;-1.60;76.80
33988;DHT22;37428;53.580;-1.666;2024-01-15T05:08:22;-1.60;76.80
33988;DHT22;37428;53.580;-1.666;2024-01-15T05:11:26;-1.50;77.10
33988;DHT22;37428;53.580;-1.666;2024-01-15T05:14:28;-1.50;76.90
33988;DHT22;37428;53.580;-1.666;2024-01-15T05:17:30;-1.50;76.90
33988;DHT22;37428;53.580;-1.666;2024-01-15T05:20:32;-1.50;77.10
33988;DHT22;37428;53.580;-1.666;2024-01-15T05:23:35;-1.50;77.20
33988;DHT22;37428;53.580;-1.666;2024-01-15T05:26:38;-1.50;77.20
33988;DHT22;37428;53.580;-1.666;2024-01-15T05:29:40;-1.50;77.60
33988;DHT22;37428;53.580;-1.666;2024-01-15T05:32:42;-1.50;77.50
33988;DHT22;37428;53.580;-1.666;2024-01-15T05:35:44;-1.50;77.60
33988;DHT22;37428;53.580;-1.666;2024-01-15T05:38:47;-1.40;77.70
33988;DHT22;37428;53.580;-1.666;2024-01-15T05:41:51;-1.40;78.30
33988;DHT22;37428;53.580;-1.666;2024-01-15T05:44:53;-1.40;77.40
33988;DHT22;37428;53.580;-1.666;2024-01-15T05:47:56;-1.50;77.90
33988;DHT22;37428;53.580;-1.666;2024-01-15T05:50:58;-1.40;77.90
33988;DHT22;37428;53.580;-1.666;2024-01-15T05:54:00;-1.50;78.10
33988;DHT22;37428;53.580;-1.666;2024-01-15T05:57:04;-1.50;78.40
33988;DHT22;37428;53.580;-1.666;2024-01-15T06:00:07;-1.50;78.10
33988;DHT22;37428;53.580;-1.666;2024-01-15T06:03:10;-1.50;78.20
33988;DHT22;37428;53.580;-1.666;2024-01-15T06:06:12;-1.50;78.20
33988;DHT22;37428;53.580;-1.666;2024-01-15T06:09:14;-1.50;78.10
33988;DHT22;37428;53.580;-1.666;2024-01-15T06:12:18;-1.50;78.30
33988;DHT22;37428;53.580;-1.666;2024-01-15T06:15:20;-1.50;78.40
33988;DHT22;37428;53.580;-1.666;2024-01-15T06:18:22;-1.60;78.60
33988;DHT22;37428;53.580;-1.666;2024-01-15T06:21:24;-1.50;79.50
33988;DHT22;37428;53.580;-1.666;2024-01-15T06:24:26;-1.60;78.90
33988;DHT22;37428;53.580;-1.666;2024-01-15T06:27:30;-1.60;79.40
33988;DHT22;37428;53.580;-1.666;2024-01-15T06:30:32;-1.70;79.20
33988;DHT22;37428;53.580;-1.666;2024-01-15T06:33:34;-1.60;80.10
33988;DHT22;37428;53.580;-1.666;2024-01-15T06:36:36;-1.70;79.70
33988;DHT22;37428;53.580;-1.666;2024-01-15T06:39:38;-1.70;79.70
33988;DHT22;37428;53.580;-1.666;2024-01-15T06:42:42;-1.70;79.90
33988;DHT22;37428;53.580;-1.666;2024-01-15T06:45:44;-1.70;79.70
33988;DHT22;37428;53.580;-1.666;2024-01-15T06:48:46;-1.80;79.30
33988;DHT22;37428;53.580;-1.666;2024-01-15T06:51:49;-1.80;79.30
33988;DHT22;37428;53.580;-1.666;2024-01-15T06:54:51;-1.80;78.60
33988;DHT22;37428;53.580;-1.666;2024-01-15T06:57:54;-1.80;78.30
33988;DHT22;37428;53.580;-1.666;2024-01-15T07:00:56;-1.80;78.30
33988;DHT22;37428;53.580;-1.666;2024-01-15T07:03:59;-1.80;78.00
33988;DHT22;37428;53.580;-1.666;2024-01-15T07:07:01;-1.90;78.10
33988;DHT22;37428;53.580;-1.666;2024-01-15T07:10:04;-1.90;78.70
33988;DHT22;37428;53.580;-1.666;2024-01-15T07:13:08;-1.90;79.10
33988;DHT22;37428;53.580;-1.666;2024-01-15T07:16:10;-1.90;78.70
33988;DHT22;37428;53.580;-1.666;2024-01-15T07:19:12;-1.90;78.90
33988;DHT22;37428;53.580;-1.666;2024-01-15T07:22:14;-1.90;79.10
33988;DHT22;37428;53.580;-1.666;2024-01-15T07:25:17;-1.90;79.10
33988;DHT22;37428;53.580;-1.666;2024-01-15T07:28:21;-1.90;79.20
33988;DHT22;37428;53.580;-1.666;2024-01-15T07:31:23;-2.00;79.00
33988;DHT22;37428;53.580;-1.666;2024-01-15T07:34:25;-2.00;79.10
33988;DHT22;37428;53.580;-1.666;2024-01-15T07:37:27;-1.90;80.00
33988;DHT22;37428;53.580;-1.666;2024-01-15T07:40:30;-1.90;79.50
33988;DHT22;37428;53.580;-1.666;2024-01-15T07:43:33;-1.90;78.90
33988;DHT22;37428;53.580;-1.666;2024-01-15T07:46:35;-1.90;78.50
33988;DHT22;37428;53.580;-1.666;2024-01-15T07:49:37;-1.90;78.30
33988;DHT22;37428;53.580;-1.666;2024-01-15T07:52:40;-1.90;78.50
33988;DHT22;37428;53.580;-1.666;2024-01-15T07:55:42;-1.90;77.50
33988;DHT22;37428;53.580;-1.666;2024-01-15T07:58:48;-1.90;77.30
33988;DHT22;37428;53.580;-1.666;2024-01-15T08:01:50;-2.00;77.00
33988;DHT22;37428;53.580;-1.666;2024-01-15T08:04:52;-2.00;76.60
33988;DHT22;37428;53.580;-1.666;2024-01-15T08:07:54;-2.00;76.90
33988;DHT22;37428;53.580;-1.666;2024-01-15T08:10:56;-2.00;76.70
33988;DHT22;37428;53.580;-1.666;2024-01-15T08:14:00;-2.00;76.70
33988;DHT22;37428;53.580;-1.666;2024-01-15T08:17:02;-2.00;77.10
33988;DHT22;37428;53.580;-1.666;2024-01-15T08:20:05;-2.10;76.40
33988;DHT22;37428;53.580;-1.666;2024-01-15T08:23:07;-2.10;76.40
33988;DHT22;37428;53.580;-1.666;2024-01-15T08:26:10;-2.10;76.10
33988;DHT22;37428;53.580;-1.666;2024-01-15T08:29:13;-2.10;76.20
33988;DHT22;37428;53.580;-1.666;2024-01-15T08:32:17;-2.00;76.60
33988;DHT22;37428;53.580;-1.666;2024-01-15T08:35:19;-2.10;75.80
33988;DHT22;37428;53.580;-1.666;2024-01-15T08:38:23;-2.10;76.20
33988;DHT22;37428;53.580;-1.666;2024-01-15T08:41:26;-2.10;76.40
33988;DHT22;37428;53.580;-1.666;2024-01-15T08:44:29;-2.00;76.50
33988;DHT22;37428;53.580;-1.666;2024-01-15T08:47:31;-2.10;76.20
33988;DHT22;37428;53.580;-1.666;2024-01-15T08:50:33;-2.00;75.50
33988;DHT22;37428;53.580;-1.666;2024-01-15T08:53:35;-2.00;75.80
33988;DHT22;37428;53.580;-1.666;2024-01-15T08:56:38;-2.00;76.50
33988;DHT22;37428;53.580;-1.666;2024-01-15T08:59:42;-2.00;76.40
33988;DHT22;37428;53.580;-1.666;2024-01-15T09:02:44;-2.10;75.60
33988;DHT22;37428;53.580;-1.666;2024-01-15T09:05:46;-2.10;75.70
33988;DHT22;37428;53.580;-1.666;2024-01-15T09:08:50;-2.10;75.50
33988;DHT22;37428;53.580;-1.666;2024-01-15T09:11:52;-2.10;75.40
33988;DHT22;37428;53.580;-1.666;2024-01-15T09:14:56;-2.00;75.20
33988;DHT22;37428;53.580;-1.666;2024-01-15T09:17:58;-2.00;75.40
33988;DHT22;37428;53.580;-1.666;2024-01-15T09:21:03;-2.00;74.80
33988;DHT22;37428;53.580;-1.666;2024-01-15T09:24:06;-2.00;74.50
33988;DHT22;37428;53.580;-1.666;2024-01-15T09:27:08;-2.00;74.30
33988;DHT22;37428;53.580;-1.666;2024-01-15T09:30:12;-1.90;74.20
33988;DHT22;37428;53.580;-1.666;2024-01-15T09:33:14;-1.80;75.20
33988;DHT22;37428;53.580;-1.666;2024-01-15T09:36:16;-1.80;74.80
33988;DHT22;37428;53.580;-1.666;2024-01-15T09:39:19;-1.90;73.90
33988;DHT22;37428;53.580;-1.666;2024-01-15T09:42:22;-1.80;73.80
33988;DHT22;37428;53.580;-1.666;2024-01-15T09:45:28;-1.80;73.30
33988;DHT22;37428;53.580;-1.666;2024-01-15T09:48:31;-1.80;73.20
33988;DHT22;37428;53.580;-1.666;2024-01-15T09:51:35;-1.80;72.90
33988;DHT22;37428;53.580;-1.666;2024-01-15T09:54:38;-1.70;73.00
33988;DHT22;37428;53.580;-1.666;2024-01-15T09:57:41;-1.70;73.20
33988;DHT22;37428;53.580;-1.666;2024-01-15T10:00:45;-1.50;72.80
33988;DHT22;37428;53.580;-1.666;2024-01-15T10:03:50;-1.20;70.80
33988;DHT22;37428;53.580;-1.666;2024-01-15T10:06:54;-1.00;69.50
33988;DHT22;37428;53.580;-1.666;2024-01-15T10:09:58;-0.70;68.10
33988;DHT22;37428;53.580;-1.666;2024-01-15T10:13:01;-0.50;67.00
33988;DHT22;37428;53.580;-1.666;2024-01-15T10:16:06;-0.30;66.80
33988;DHT22;37428;53.580;-1.666;2024-01-15T10:19:09;-0.10;65.70
33988;DHT22;37428;53.580;-1.666;2024-01-15T10:22:11;0.00;64.40
33988;DHT22;37428;53.580;-1.666;2024-01-15T10:25:13;0.20;64.40
33988;DHT22;37428;53.580;-1.666;2024-01-15T10:28:16;0.30;63.40
33988;DHT22;37428;53.580;-1.666;2024-01-15T10:31:19;0.40;62.80
33988;DHT22;37428;53.580;-1.666;2024-01-15T10:34:22;0.50;62.00
33988;DHT22;37428;53.580;-1.666;2024-01-15T10:37:24;0.60;61.90
33988;DHT22;37428;53.580;-1.666;2024-01-15T10:40:28;0.60;61.20
33988;DHT22;37428;53.580;-1.666;2024-01-15T10:43:30;0.60;61.10
33988;DHT22;37428;53.580;-1.666;2024-01-15T10:46:34;0.60;60.70
33988;DHT22;37428;53.580;-1.666;2024-01-15T10:49:36;0.70;60.30
33988;DHT22;37428;53.580;-1.666;2024-01-15T10:52:40;0.80;59.70
33988;DHT22;37428;53.580;-1.666;2024-01-15T10:55:44;1.00;60.00
33988;DHT22;37428;53.580;-1.666;2024-01-15T10:58:50;1.00;60.00
33988;DHT22;37428;53.580;-1.666;2024-01-15T11:01:54;1.20;60.00
33988;DHT22;37428;53.580;-1.666;2024-01-15T11:04:56;1.10;58.70
33988;DHT22;37428;53.580;-1.666;2024-01-15T11:07:58;1.10;58.20
33988;DHT22;37428;53.580;-1.666;2024-01-15T11:11:01;1.20;59.00
33988;DHT22;37428;53.580;-1.666;2024-01-15T11:14:03;1.20;58.30
33988;DHT22;37428;53.580;-1.666;2024-01-15T11:17:09;1.10;58.00
33988;DHT22;37428;53.580;-1.666;2024-01-15T11:20:11;0.90;57.50
33988;DHT22;37428;53.580;-1.666;2024-01-15T11:23:43;0.70;57.30
33988;DHT22;37428;53.580;-1.666;2024-01-15T11:26:47;0.50;59.40
33988;DHT22;37428;53.580;-1.666;2024-01-15T11:29:48;0.40;58.80
33988;DHT22;37428;53.580;-1.666;2024-01-15T11:33:06;0.20;60.40
33988;DHT22;37428;53.580;-1.666;2024-01-15T11:36:08;0.20;60.00
33988;DHT22;37428;53.580;-1.666;2024-01-15T11:39:41;0.10;60.50
33988;DHT22;37428;53.580;-1.666;2024-01-15T11:42:48;0.10;60.50
33988;DHT22;37428;53.580;-1.666;2024-01-15T11:45:52;0.10;60.90
33988;DHT22;37428;53.580;-1.666;2024-01-15T11:49:03;0.20;60.70
33988;DHT22;37428;53.580;-1.666;2024-01-15T11:52:07;0.20;60.00
33988;DHT22;37428;53.580;-1.666;2024-01-15T11:55:12;0.20;60.20
33988;DHT22;37428;53.580;-1.666;2024-01-15T11:58:15;0.10;60.20
33988;DHT22;37428;53.580;-1.666;2024-01-15T12:01:18;0.20;60.70
33988;DHT22;37428;53.580;-1.666;2024-01-15T12:04:22;0.20;60.70
33988;DHT22;37428;53.580;-1.666;2024-01-15T12:07:24;0.10;59.90
33988;DHT22;37428;53.580;-1.666;2024-01-15T12:10:27;0.10;60.30
33988;DHT22;37428;53.580;-1.666;2024-01-15T12:13:30;0.10;60.20
33988;DHT22;37428;53.580;-1.666;2024-01-15T12:16:32;0.20;60.40
33988;DHT22;37428;53.580;-1.666;2024-01-15T12:19:37;0.40;60.10
33988;DHT22;37428;53.580;-1.666;2024-01-15T12:22:39;0.40;59.90
33988;DHT22;37428;53.580;-1.666;2024-01-15T12:25:42;0.50;59.00
33988;DHT22;37428;53.580;-1.666;2024-01-15T12:28:43;0.70;59.20
33988;DHT22;37428;53.580;-1.666;2024-01-15T12:31:47;0.80;58.00
33988;DHT22;37428;53.580;-1.666;2024-01-15T12:34:51;0.90;57.70
33988;DHT22;37428;53.580;-1.666;2024-01-15T12:37:54;0.90;56.80
33988;DHT22;37428;53.580;-1.666;2024-01-15T12:40:57;0.80;56.60
33988;DHT22;37428;53.580;-1.666;2024-01-15T12:43:59;0.90;56.60
33988;DHT22;37428;53.580;-1.666;2024-01-15T12:47:01;1.00;56.00
33988;DHT22;37428;53.580;-1.666;2024-01-15T12:50:08;1.00;56.20
33988;DHT22;37428;53.580;-1.666;2024-01-15T12:53:11;1.00;55.10
33988;DHT22;37428;53.580;-1.666;2024-01-15T12:56:13;1.00;55.30
33988;DHT22;37428;53.580;-1.666;2024-01-15T12:59:15;1.20;54.70
33988;DHT22;37428;53.580;-1.666;2024-01-15T13:02:17;1.40;54.40
33988;DHT22;37428;53.580;-1.666;2024-01-15T13:05:21;1.50;53.90
33988;DHT22;37428;53.580;-1.666;2024-01-15T13:08:24;1.60;54.20
33988;DHT22;37428;53.580;-1.666;2024-01-15T13:11:27;1.70;53.50
33988;DHT22;37428;53.580;-1.666;2024-01-15T13:14:30;1.70;52.90
33988;DHT22;37428;53.580;-1.666;2024-01-15T13:17:32;1.70;53.10
33988;DHT22;37428;53.580;-1.666;2024-01-15T13:20:35;1.70;52.70
33988;DHT22;37428;53.580;-1.666;2024-01-15T13:23:37;1.80;52.70
33988;DHT22;37428;53.580;-1.666;2024-01-15T13:26:39;1.90;52.30
33988;DHT22;37428;53.580;-1.666;2024-01-15T13:29:42;2.10;52.40
33988;DHT22;37428;53.580;-1.666;2024-01-15T13:32:44;2.30;51.90
33988;DHT22;37428;53.580;-1.666;2024-01-15T13:35:48;2.40;51.60
33988;DHT22;37428;53.580;-1.666;2024-01-15T13:38:51;2.60;51.10
33988;DHT22;37428;53.580;-1.666;2024-01-15T13:41:54;2.60;50.50
33988;DHT22;37428;53.580;-1.666;2024-01-15T13:44:56;2.50;50.90
33988;DHT22;37428;53.580;-1.666;2024-01-15T13:47:58;2.40;50.40
33988;DHT22;37428;53.580;-1.666;2024-01-15T13:51:02;2.30;50.30
33988;DHT22;37428;53.580;-1.666;2024-01-15T13:54:04;2.10;51.00
33988;DHT22;37428;53.580;-1.666;2024-01-15T13:57:06;2.00;51.90
33988;DHT22;37428;53.580;-1.666;2024-01-15T14:00:10;1.90;51.60
33988;DHT22;37428;53.580;-1.666;2024-01-15T14:03:12;1.70;51.60
33988;DHT22;37428;53.580;-1.666;2024-01-15T14:06:16;1.70;51.20
33988;DHT22;37428;53.580;-1.666;2024-01-15T14:09:18;1.70;51.40
33988;DHT22;37428;53.580;-1.666;2024-01-15T14:12:20;1.80;51.40
33988;DHT22;37428;53.580;-1.666;2024-01-15T14:15:22;1.70;51.40
33988;DHT22;37428;53.580;-1.666;2024-01-15T14:18:24;1.70;50.70
33988;DHT22;37428;53.580;-1.666;2024-01-15T14:21:27;1.80;51.20
33988;DHT22;37428;53.580;-1.666;2024-01-15T14:24:30;1.90;51.00
33988;DHT22;37428;53.580;-1.666;2024-01-15T14:27:32;1.80;50.80
33988;DHT22;37428;53.580;-1.666;2024-01-15T14:30:34;1.80;50.70
33988;DHT22;37428;53.580;-1.666;2024-01-15T14:33:36;1.80;50.80
33988;DHT22;37428;53.580;-1.666;2024-01-15T14:36:40;1.70;50.40
33988;DHT22;37428;53.580;-1.666;2024-01-15T14:39:42;1.60;50.90
33988;DHT22;37428;53.580;-1.666;2024-01-15T14:42:47;1.40;50.90
33988;DHT22;37428;53.580;-1.666;2024-01-15T14:45:50;1.20;51.30
33988;DHT22;37428;53.580;-1.666;2024-01-15T14:48:53;1.00;52.00
33988;DHT22;37428;53.580;-1.666;2024-01-15T14:51:57;0.80;52.90
33988;DHT22;37428;53.580;-1.666;2024-01-15T14:54:59;0.70;53.70
33988;DHT22;37428;53.580;-1.666;2024-01-15T14:58:01;0.60;54.50
33988;DHT22;37428;53.580;-1.666;2024-01-15T15:01:03;0.50;54.70
33988;DHT22;37428;53.580;-1.666;2024-01-15T15:04:05;0.40;55.00
33988;DHT22;37428;53.580;-1.666;2024-01-15T15:07:10;0.30;55.40
33988;DHT22;37428;53.580;-1.666;2024-01-15T15:10:12;0.30;55.60
33988;DHT22;37428;53.580;-1.666;2024-01-15T15:13:15;0.30;55.20
33988;DHT22;37428;53.580;-1.666;2024-01-15T15:16:17;0.20;55.60
33988;DHT22;37428;53.580;-1.666;2024-01-15T15:19:19;0.20;56.00
33988;DHT22;37428;53.580;-1.666;2024-01-15T15:22:23;0.20;56.10
33988;DHT22;37428;53.580;-1.666;2024-01-15T15:25:25;0.20;55.90
33988;DHT22;37428;53.580;-1.666;2024-01-15T15:28:27;0.20;56.20
33988;DHT22;37428;53.580;-1.666;2024-01-15T15:31:29;0.10;56.00
33988;DHT22;37428;53.580;-1.666;2024-01-15T15:34:32;0.00;56.40
33988;DHT22;37428;53.580;-1.666;2024-01-15T15:37:35;0.00;55.80
33988;DHT22;37428;53.580;-1.666;2024-01-15T15:40:37;0.00;56.40
33988;DHT22;37428;53.580;-1.666;2024-01-15T15:43:39;0.00;56.70
33988;DHT22;37428;53.580;-1.666;2024-01-15T15:46:42;0.00;56.90
33988;DHT22;37428;53.580;-1.666;2024-01-15T15:49:44;0.00;57.40
33988;DHT22;37428;53.580;-1.666;2024-01-15T15:52:48;-0.20;57.10
33988;DHT22;37428;53.580;-1.666;2024-01-15T15:55:50;-0.20;57.80
33988;DHT22;37428;53.580;-1.666;2024-01-15T15:58:52;-0.20;58.30
33988;DHT22;37428;53.580;-1.666;2024-01-15T16:01:54;-0.10;58.40
33988;DHT22;37428;53.580;-1.666;2024-01-15T16:04:57;-0.20;58.20
33988;DHT22;37428;53.580;-1.666;2024-01-15T16:08:01;-0.30;58.90
33988;DHT22;37428;53.580;-1.666;2024-01-15T16:11:03;-0.40;59.20
33988;DHT22;37428;53.580;-1.666;2024-01-15T16:14:05;-0.40;60.50
33988;DHT22;37428;53.580;-1.666;2024-01-15T16:17:07;-0.40;60.10
33988;DHT22;37428;53.580;-1.666;2024-01-15T16:20:10;-0.40;59.70
33988;DHT22;37428;53.580;-1.666;2024-01-15T16:23:14;-0.40;59.90
33988;DHT22;37428;53.580;-1.666;2024-01-15T16:26:16;-0.50;60.00
33988;DHT22;37428;53.580;-1.666;2024-01-15T16:29:18;-0.50;60.30
33988;DHT22;37428;53.580;-1.666;2024-01-15T16:32:21;-0.60;60.80
33988;DHT22;37428;53.580;-1.666;2024-01-15T16:35:23;-0.60;60.50
33988;DHT22;37428;53.580;-1.666;2024-01-15T16:38:26;-0.60;60.90
33988;DHT22;37428;53.580;-1.666;2024-01-15T16:41:29;-0.70;61.00
33988;DHT22;37428;53.580;-1.666;2024-01-15T16:44:31;-0.70;61.70
33988;DHT22;37428;53.580;-1.666;2024-01-15T16:47:33;-0.70;62.50
33988;DHT22;37428;53.580;-1.666;2024-01-15T16:50:35;-0.60;62.70
33988;DHT22;37428;53.580;-1.666;2024-01-15T16:53:39;-0.70;62.00
33988;DHT22;37428;53.580;-1.666;2024-01-15T16:56:41;-0.60;62.50
33988;DHT22;37428;53.580;-1.666;2024-01-15T16:59:43;-0.60;61.90
33988;DHT22;37428;53.580;-1.666;2024-01-15T17:02:45;-0.60;62.30
33988;DHT22;37428;53.580;-1.666;2024-01-15T17:05:47;-0.70;62.00
33988;DHT22;37428;53.580;-1.666;2024-01-15T17:08:51;-0.70;62.50
33988;DHT22;37428;53.580;-1.666;2024-01-15T17:11:53;-0.70;62.80
33988;DHT22;37428;53.580;-1.666;2024-01-15T17:14:55;-0.70;62.80
33988;DHT22;37428;53.580;-1.666;2024-01-15T17:17:58;-0.80;62.90
33988;DHT22;37428;53.580;-1.666;2024-01-15T17:21:00;-0.90;63.60
33988;DHT22;37428;53.580;-1.666;2024-01-15T17:24:04;-1.00;63.60
33988;DHT22;37428;53.580;-1.666;2024-01-15T17:27:06;-1.10;64.40
33988;DHT22;37428;53.580;-1.666;2024-01-15T17:30:09;-1.00;64.80
33988;DHT22;37428;53.580;-1.666;2024-01-15T17:33:12;-1.10;64.90
33988;DHT22;37428;53.580;-1.666;2024-01-15T17:36:14;-1.10;65.30
33988;DHT22;37428;53.580;-1.666;2024-01-15T17:39:18;-1.10;65.10
33988;DHT22;37428;53.580;-1.666;2024-01-15T17:42:20;-1.20;65.20
33988;DHT22;37428;53.580;-1.666;2024-01-15T17:45:23;-1.30;65.10
33988;DHT22;37428;53.580;-1.666;2024-01-15T17:48:27;-1.30;66.00
33988;DHT22;37428;53.580;-1.666;2024-01-15T17:51:30;-1.30;66.10
33988;DHT22;37428;53.580;-1.666;2024-01-15T17:54:34;-1.30;65.80
33988;DHT22;37428;53.580;-1.666;2024-01-15T17:57:36;-1.30;65.80
33988;DHT22;37428;53.580;-1.666;2024-01-15T18:00:38;-1.20;65.90
33988;DHT22;37428;53.580;-1.666;2024-01-15T18:03:40;-1.20;65.40
33988;DHT22;37428;53.580;-1.666;2024-01-15T18:06:42;-1.20;66.00
33988;DHT22;37428;53.580;-1.666;2024-01-15T18:09:49;-1.20;65.00
33988;DHT22;37428;53.580;-1.666;2024-01-15T18:12:51;-1.20;64.90
33988;DHT22;37428;53.580;-1.666;2024-01-15T18:15:56;-1.20;64.40
33988;DHT22;37428;53.580;-1.666;2024-01-15T18:18:58;-1.20;64.50
33988;DHT22;37428;53.580;-1.666;2024-01-15T18:22:00;-1.20;64.10
33988;DHT22;37428;53.580;-1.666;2024-01-15T18:25:05;-1.20;63.90
33988;DHT22;37428;53.580;-1.666;2024-01-15T18:28:08;-1.20;63.80
33988;DHT22;37428;53.580;-1.666;2024-01-15T18:31:10;-1.20;64.50
33988;DHT22;37428;53.580;-1.666;2024-01-15T18:34:12;-1.20;64.50
33988;DHT22;37428;53.580;-1.666;2024-01-15T18:37:15;-1.30;65.00
33988;DHT22;37428;53.580;-1.666;2024-01-15T18:40:18;-1.40;65.00
33988;DHT22;37428;53.580;-1.666;2024-01-15T18:43:20;-1.40;64.80
33988;DHT22;37428;53.580;-1.666;2024-01-15T18:46:22;-1.40;65.50
33988;DHT22;37428;53.580;-1.666;2024-01-15T18:49:25;-1.50;64.40
33988;DHT22;37428;53.580;-1.666;2024-01-15T18:52:27;-1.50;65.50
33988;DHT22;37428;53.580;-1.666;2024-01-15T18:55:31;-1.50;64.90
33988;DHT22;37428;53.580;-1.666;2024-01-15T18:58:33;-1.50;64.40
33988;DHT22;37428;53.580;-1.666;2024-01-15T19:01:41;-1.50;65.00